Huvudsida
METAR-TAF:

METAR-TAF

Flygplatser :

Shiraz International Airport

Shiraz, Iran

latitud: 29-32N, longitud: 052-35E, höjd: 1486 m

Aktuellt väderrapport

Denna rapport gjordes för 33 minuter sedan, klockan 03:00 UTC
Stilla vind
Temperatur 21°C
Fuktighet 35%
Tryck 1010 hPa
Sikt 10 km eller mer
Inga moln under 1 500 m eller inga cumulonimbus

METAR: OISS 200300Z 00000KT CAVOK 21/05 Q1010 A2983

Tid: 08:03 (03:33 UTC)

Väderprognos

Denna rapport gjordes för 4 timmar och 3 minuter sedan, klockan 23:30 UTC
Prognos gäller från 20 kl. 00 UTC till 21 kl. 06 UTC
Vind 8 kt från väst
Sikt 10 km eller mer
Inga moln under 1 500 m eller inga cumulonimbus
Temporärt
från 20 kl. 11 UTC till 20 kl. 16 UTC

TAF: OISS 192330Z 2000/2106 28008KT CAVOK TEMPO 2011/2016 26018K

Aktuella väderrapporter och prognoser från 4000 flygplatser (METAR- och TAF-rapporter).

De tillgängliga stationerna syns som gula och röda prickar på kartan.

För musen över prickarna för att se namnen på stationerna.

Klicka sedan för att få väderrapporter och prognoser.

För att ändra kartan: Klicka på de gröna knapparna med ett svart kors på för att zooma in; den gröna knappen med ett streck på för att zooma ut; eller på de gröna pilarna för angränsande kartor.


METAR-TAF: